sensor_id;sensor_type;location;lat;lon;timestamp;temperature;humidity
5940;DHT22;2995;-31.998;115.906;2023-04-01T00:02:31;19.20;99.90
5940;DHT22;2995;-31.998;115.906;2023-04-01T00:05:02;19.20;99.90
5940;DHT22;2995;-31.998;115.906;2023-04-01T00:07:33;19.30;99.90
5940;DHT22;2995;-31.998;115.906;2023-04-01T00:10:09;19.40;99.90
5940;DHT22;2995;-31.998;115.906;2023-04-01T00:12:41;19.50;99.90
5940;DHT22;2995;-31.998;115.906;2023-04-01T00:15:12;19.70;99.90
5940;DHT22;2995;-31.998;115.906;2023-04-01T00:17:43;19.70;99.90
5940;DHT22;2995;-31.998;115.906;2023-04-01T00:20:15;19.80;99.90
5940;DHT22;2995;-31.998;115.906;2023-04-01T00:22:46;20.00;99.90
5940;DHT22;2995;-31.998;115.906;2023-04-01T00:25:20;20.10;99.90
5940;DHT22;2995;-31.998;115.906;2023-04-01T00:27:51;20.10;99.90
5940;DHT22;2995;-31.998;115.906;2023-04-01T00:30:22;20.10;99.90
5940;DHT22;2995;-31.998;115.906;2023-04-01T00:32:54;20.00;99.90
5940;DHT22;2995;-31.998;115.906;2023-04-01T00:35:25;20.00;99.90
5940;DHT22;2995;-31.998;115.906;2023-04-01T00:37:56;20.10;99.90
5940;DHT22;2995;-31.998;115.906;2023-04-01T00:40:32;20.20;99.90
5940;DHT22;2995;-31.998;115.906;2023-04-01T00:43:08;20.30;99.90
5940;DHT22;2995;-31.998;115.906;2023-04-01T00:45:41;20.40;99.90
5940;DHT22;2995;-31.998;115.906;2023-04-01T00:48:16;20.50;99.90
5940;DHT22;2995;-31.998;115.906;2023-04-01T00:50:50;20.50;99.90
5940;DHT22;2995;-31.998;115.906;2023-04-01T00:53:23;20.40;99.90
5940;DHT22;2995;-31.998;115.906;2023-04-01T00:56:00;20.50;99.90
5940;DHT22;2995;-31.998;115.906;2023-04-01T00:58:34;20.40;99.90
5940;DHT22;2995;-31.998;115.906;2023-04-01T01:01:09;20.50;99.90
5940;DHT22;2995;-31.998;115.906;2023-04-01T01:03:40;20.50;99.90
5940;DHT22;2995;-31.998;115.906;2023-04-01T01:06:31;20.60;99.90
5940;DHT22;2995;-31.998;115.906;2023-04-01T01:09:21;20.70;99.90
5940;DHT22;2995;-31.998;115.906;2023-04-01T01:12:04;20.90;99.90
5940;DHT22;2995;-31.998;115.906;2023-04-01T01:14:49;21.00;99.90
5940;DHT22;2995;-31.998;115.906;2023-04-01T01:17:31;21.00;99.90
5940;DHT22;2995;-31.998;115.906;2023-04-01T01:23:45;21.00;99.90
5940;DHT22;2995;-31.998;115.906;2023-04-01T01:26:41;21.10;99.90
5940;DHT22;2995;-31.998;115.906;2023-04-01T01:29:29;21.30;99.90
5940;DHT22;2995;-31.998;115.906;2023-04-01T01:32:08;21.30;99.90
5940;DHT22;2995;-31.998;115.906;2023-04-01T01:34:47;21.40;99.90
5940;DHT22;2995;-31.998;115.906;2023-04-01T01:37:24;21.40;99.90
5940;DHT22;2995;-31.998;115.906;2023-04-01T01:39:59;21.50;99.90
5940;DHT22;2995;-31.998;115.906;2023-04-01T01:42:33;21.50;99.90
5940;DHT22;2995;-31.998;115.906;2023-04-01T01:45:07;21.40;99.90
5940;DHT22;2995;-31.998;115.906;2023-04-01T01:47:41;21.40;99.90
5940;DHT22;2995;-31.998;115.906;2023-04-01T01:50:14;21.40;99.90
5940;DHT22;2995;-31.998;115.906;2023-04-01T01:52:48;21.50;99.90
5940;DHT22;2995;-31.998;115.906;2023-04-01T01:55:28;21.60;99.90
5940;DHT22;2995;-31.998;115.906;2023-04-01T01:58:01;21.90;99.90
5940;DHT22;2995;-31.998;115.906;2023-04-01T02:00:34;21.90;99.90
5940;DHT22;2995;-31.998;115.906;2023-04-01T02:03:06;21.80;99.90
5940;DHT22;2995;-31.998;115.906;2023-04-01T02:05:38;21.80;99.90
5940;DHT22;2995;-31.998;115.906;2023-04-01T02:08:13;22.00;99.90
5940;DHT22;2995;-31.998;115.906;2023-04-01T02:10:53;22.10;99.90
5940;DHT22;2995;-31.998;115.906;2023-04-01T02:13:29;22.20;99.90
5940;DHT22;2995;-31.998;115.906;2023-04-01T02:16:05;22.20;99.90
5940;DHT22;2995;-31.998;115.906;2023-04-01T02:18:38;22.30;99.90
5940;DHT22;2995;-31.998;115.906;2023-04-01T02:21:10;22.40;99.90
5940;DHT22;2995;-31.998;115.906;2023-04-01T02:23:46;22.60;99.90
5940;DHT22;2995;-31.998;115.906;2023-04-01T02:26:18;22.70;99.90
5940;DHT22;2995;-31.998;115.906;2023-04-01T02:28:50;22.70;99.90
5940;DHT22;2995;-31.998;115.906;2023-04-01T02:31:22;22.90;99.90
5940;DHT22;2995;-31.998;115.906;2023-04-01T02:33:54;22.90;99.90
5940;DHT22;2995;-31.998;115.906;2023-04-01T02:36:26;23.00;99.90
5940;DHT22;2995;-31.998;115.906;2023-04-01T02:38:59;23.10;99.90
5940;DHT22;2995;-31.998;115.906;2023-04-01T02:41:32;23.00;99.90
5940;DHT22;2995;-31.998;115.906;2023-04-01T02:44:09;22.90;99.90
5940;DHT22;2995;-31.998;115.906;2023-04-01T02:46:41;22.90;99.90
5940;DHT22;2995;-31.998;115.906;2023-04-01T02:49:12;22.90;99.90
5940;DHT22;2995;-31.998;115.906;2023-04-01T02:51:43;22.90;99.90
5940;DHT22;2995;-31.998;115.906;2023-04-01T02:54:17;23.10;99.90
5940;DHT22;2995;-31.998;115.906;2023-04-01T02:56:48;23.20;99.90
5940;DHT22;2995;-31.998;115.906;2023-04-01T02:59:19;23.20;99.90
5940;DHT22;2995;-31.998;115.906;2023-04-01T03:01:50;23.40;99.90
5940;DHT22;2995;-31.998;115.906;2023-04-01T03:04:21;23.50;99.90
5940;DHT22;2995;-31.998;115.906;2023-04-01T03:06:53;23.60;99.90
5940;DHT22;2995;-31.998;115.906;2023-04-01T03:09:26;23.60;99.90
5940;DHT22;2995;-31.998;115.906;2023-04-01T03:11:57;23.40;99.90
5940;DHT22;2995;-31.998;115.906;2023-04-01T03:14:28;23.20;99.90
5940;DHT22;2995;-31.998;115.906;2023-04-01T03:16:59;23.20;99.90
5940;DHT22;2995;-31.998;115.906;2023-04-01T03:19:31;23.20;99.90
5940;DHT22;2995;-31.998;115.906;2023-04-01T03:22:02;23.40;99.90
5940;DHT22;2995;-31.998;115.906;2023-04-01T03:24:35;23.40;99.90
5940;DHT22;2995;-31.998;115.906;2023-04-01T03:27:07;23.50;99.90
5940;DHT22;2995;-31.998;115.906;2023-04-01T03:29:38;23.70;99.90
5940;DHT22;2995;-31.998;115.906;2023-04-01T03:32:09;23.90;99.90
5940;DHT22;2995;-31.998;115.906;2023-04-01T03:34:41;23.90;99.90
5940;DHT22;2995;-31.998;115.906;2023-04-01T03:37:12;24.00;99.90
5940;DHT22;2995;-31.998;115.906;2023-04-01T03:39:46;24.10;99.90
5940;DHT22;2995;-31.998;115.906;2023-04-01T03:42:17;24.30;99.90
5940;DHT22;2995;-31.998;115.906;2023-04-01T03:44:48;24.30;99.90
5940;DHT22;2995;-31.998;115.906;2023-04-01T03:47:19;24.30;99.90
5940;DHT22;2995;-31.998;115.906;2023-04-01T03:49:50;24.40;99.90
5940;DHT22;2995;-31.998;115.906;2023-04-01T03:52:22;24.20;99.90
5940;DHT22;2995;-31.998;115.906;2023-04-01T03:54:55;24.40;99.90
5940;DHT22;2995;-31.998;115.906;2023-04-01T03:57:26;24.20;99.90
5940;DHT22;2995;-31.998;115.906;2023-04-01T03:59:57;24.10;99.90
5940;DHT22;2995;-31.998;115.906;2023-04-01T04:02:29;24.10;99.90
5940;DHT22;2995;-31.998;115.906;2023-04-01T04:05:00;24.30;99.90
5940;DHT22;2995;-31.998;115.906;2023-04-01T04:07:31;24.40;99.90
5940;DHT22;2995;-31.998;115.906;2023-04-01T04:10:07;24.50;99.90
5940;DHT22;2995;-31.998;115.906;2023-04-01T04:12:38;24.50;99.90
5940;DHT22;2995;-31.998;115.906;2023-04-01T04:15:10;24.40;99.90
5940;DHT22;2995;-31.998;115.906;2023-04-01T04:17:42;24.40;99.90
5940;DHT22;2995;-31.998;115.906;2023-04-01T04:20:14;24.60;99.90
5940;DHT22;2995;-31.998;115.906;2023-04-01T04:22:46;24.60;99.90
5940;DHT22;2995;-31.998;115.906;2023-04-01T04:25:19;24.80;99.90
5940;DHT22;2995;-31.998;115.906;2023-04-01T04:27:50;24.40;99.90
5940;DHT22;2995;-31.998;115.906;2023-04-01T04:30:21;24.60;99.90
5940;DHT22;2995;-31.998;115.906;2023-04-01T04:32:53;24.60;99.90
5940;DHT22;2995;-31.998;115.906;2023-04-01T04:35:27;24.70;99.90
5940;DHT22;2995;-31.998;115.906;2023-04-01T04:37:58;24.70;99.90
5940;DHT22;2995;-31.998;115.906;2023-04-01T04:40:31;24.60;99.90
5940;DHT22;2995;-31.998;115.906;2023-04-01T04:43:02;24.40;99.90
5940;DHT22;2995;-31.998;115.906;2023-04-01T04:45:34;24.40;99.90
5940;DHT22;2995;-31.998;115.906;2023-04-01T04:48:05;24.30;99.90
5940;DHT22;2995;-31.998;115.906;2023-04-01T04:50:37;24.60;99.90
5940;DHT22;2995;-31.998;115.906;2023-04-01T04:53:11;24.70;99.90
5940;DHT22;2995;-31.998;115.906;2023-04-01T04:55:47;24.80;99.90
5940;DHT22;2995;-31.998;115.906;2023-04-01T04:58:19;24.90;99.90
5940;DHT22;2995;-31.998;115.906;2023-04-01T05:00:50;25.00;99.90
5940;DHT22;2995;-31.998;115.906;2023-04-01T05:03:21;25.20;99.90
5940;DHT22;2995;-31.998;115.906;2023-04-01T05:05:54;25.50;99.90
5940;DHT22;2995;-31.998;115.906;2023-04-01T05:08:25;25.60;99.90
5940;DHT22;2995;-31.998;115.906;2023-04-01T05:10:58;25.80;99.90
5940;DHT22;2995;-31.998;115.906;2023-04-01T05:13:30;25.70;99.90
5940;DHT22;2995;-31.998;115.906;2023-04-01T05:16:01;25.60;99.90
5940;DHT22;2995;-31.998;115.906;2023-04-01T05:18:32;25.40;99.90
5940;DHT22;2995;-31.998;115.906;2023-04-01T05:21:04;25.30;99.90
5940;DHT22;2995;-31.998;115.906;2023-04-01T05:23:35;25.20;99.90
5940;DHT22;2995;-31.998;115.906;2023-04-01T05:26:10;25.30;99.90
5940;DHT22;2995;-31.998;115.906;2023-04-01T05:28:42;25.40;99.90
5940;DHT22;2995;-31.998;115.906;2023-04-01T05:31:13;25.30;99.90
5940;DHT22;2995;-31.998;115.906;2023-04-01T05:33:44;24.80;99.90
5940;DHT22;2995;-31.998;115.906;2023-04-01T05:36:16;24.80;99.90
5940;DHT22;2995;-31.998;115.906;2023-04-01T05:38:47;24.90;99.90
5940;DHT22;2995;-31.998;115.906;2023-04-01T05:41:21;25.00;99.90
5940;DHT22;2995;-31.998;115.906;2023-04-01T05:43:52;25.10;99.90
5940;DHT22;2995;-31.998;115.906;2023-04-01T05:46:23;25.20;99.90
5940;DHT22;2995;-31.998;115.906;2023-04-01T05:48:54;25.40;99.90
5940;DHT22;2995;-31.998;115.906;2023-04-01T05:51:25;25.20;99.90
5940;DHT22;2995;-31.998;115.906;2023-04-01T05:53:57;25.20;99.90
5940;DHT22;2995;-31.998;115.906;2023-04-01T05:56:30;25.10;99.90
5940;DHT22;2995;-31.998;115.906;2023-04-01T05:59:01;25.10;99.90
5940;DHT22;2995;-31.998;115.906;2023-04-01T06:01:32;25.20;99.90
5940;DHT22;2995;-31.998;115.906;2023-04-01T06:04:04;25.10;99.90
5940;DHT22;2995;-31.998;115.906;2023-04-01T06:06:35;25.10;99.90
5940;DHT22;2995;-31.998;115.906;2023-04-01T06:09:13;24.90;99.90
5940;DHT22;2995;-31.998;115.906;2023-04-01T06:14:49;25.00;99.90
5940;DHT22;2995;-31.998;115.906;2023-04-01T06:17:30;25.00;99.90
5940;DHT22;2995;-31.998;115.906;2023-04-01T06:20:12;24.90;99.90
5940;DHT22;2995;-31.998;115.906;2023-04-01T06:23:10;25.00;99.90
5940;DHT22;2995;-31.998;115.906;2023-04-01T06:25:53;24.80;99.90
5940;DHT22;2995;-31.998;115.906;2023-04-01T06:29:00;24.60;99.90
5940;DHT22;2995;-31.998;115.906;2023-04-01T06:31:53;24.80;99.90
5940;DHT22;2995;-31.998;115.906;2023-04-01T06:37:37;25.00;99.90
5940;DHT22;2995;-31.998;115.906;2023-04-01T06:40:27;25.00;99.90
5940;DHT22;2995;-31.998;115.906;2023-04-01T06:43:11;25.10;99.90
5940;DHT22;2995;-31.998;115.906;2023-04-01T06:45:53;25.30;99.90
5940;DHT22;2995;-31.998;115.906;2023-04-01T06:48:41;25.30;99.90
5940;DHT22;2995;-31.998;115.906;2023-04-01T06:51:23;25.20;99.90
5940;DHT22;2995;-31.998;115.906;2023-04-01T06:53:59;25.20;99.90
5940;DHT22;2995;-31.998;115.906;2023-04-01T06:56:34;25.30;99.90
5940;DHT22;2995;-31.998;115.906;2023-04-01T06:59:12;25.20;99.90
5940;DHT22;2995;-31.998;115.906;2023-04-01T07:01:48;24.90;99.90
5940;DHT22;2995;-31.998;115.906;2023-04-01T07:04:23;24.80;99.90
5940;DHT22;2995;-31.998;115.906;2023-04-01T07:06:57;24.80;99.90
5940;DHT22;2995;-31.998;115.906;2023-04-01T07:09:33;24.90;99.90
5940;DHT22;2995;-31.998;115.906;2023-04-01T07:12:11;25.00;99.90
5940;DHT22;2995;-31.998;115.906;2023-04-01T07:14:47;25.00;99.90
5940;DHT22;2995;-31.998;115.906;2023-04-01T07:17:22;25.00;99.90
5940;DHT22;2995;-31.998;115.906;2023-04-01T07:19:58;25.00;99.90
5940;DHT22;2995;-31.998;115.906;2023-04-01T07:22:34;25.10;99.90
5940;DHT22;2995;-31.998;115.906;2023-04-01T07:25:13;25.20;99.90
5940;DHT22;2995;-31.998;115.906;2023-04-01T07:27:45;25.20;99.90
5940;DHT22;2995;-31.998;115.906;2023-04-01T07:30:18;24.80;99.90
5940;DHT22;2995;-31.998;115.906;2023-04-01T07:32:53;24.80;99.90
5940;DHT22;2995;-31.998;115.906;2023-04-01T07:35:31;24.90;99.90
5940;DHT22;2995;-31.998;115.906;2023-04-01T07:38:17;25.20;99.90
5940;DHT22;2995;-31.998;115.906;2023-04-01T07:40:56;25.20;99.90
5940;DHT22;2995;-31.998;115.906;2023-04-01T07:43:51;25.30;99.90
5940;DHT22;2995;-31.998;115.906;2023-04-01T07:49:25;25.30;99.90
5940;DHT22;2995;-31.998;115.906;2023-04-01T07:52:03;25.40;99.90
5940;DHT22;2995;-31.998;115.906;2023-04-01T07:54:41;25.30;99.90
5940;DHT22;2995;-31.998;115.906;2023-04-01T07:57:15;25.10;99.90
5940;DHT22;2995;-31.998;115.906;2023-04-01T07:59:56;25.20;99.90
5940;DHT22;2995;-31.998;115.906;2023-04-01T08:02:38;25.30;99.90
5940;DHT22;2995;-31.998;115.906;2023-04-01T08:05:21;25.40;99.90
5940;DHT22;2995;-31.998;115.906;2023-04-01T08:08:01;25.50;99.90
5940;DHT22;2995;-31.998;115.906;2023-04-01T08:10:39;25.30;99.90
5940;DHT22;2995;-31.998;115.906;2023-04-01T08:13:17;25.30;99.90
5940;DHT22;2995;-31.998;115.906;2023-04-01T08:15:57;25.20;99.90
5940;DHT22;2995;-31.998;115.906;2023-04-01T08:18:39;25.20;99.90
5940;DHT22;2995;-31.998;115.906;2023-04-01T08:21:17;25.30;99.90
5940;DHT22;2995;-31.998;115.906;2023-04-01T08:23:52;25.40;99.90
5940;DHT22;2995;-31.998;115.906;2023-04-01T08:26:32;25.40;99.90
5940;DHT22;2995;-31.998;115.906;2023-04-01T08:29:12;25.30;99.90
5940;DHT22;2995;-31.998;115.906;2023-04-01T08:31:49;25.40;99.90
5940;DHT22;2995;-31.998;115.906;2023-04-01T08:34:26;25.30;99.90
5940;DHT22;2995;-31.998;115.906;2023-04-01T08:37:04;25.40;99.90
5940;DHT22;2995;-31.998;115.906;2023-04-01T08:39:37;25.40;99.90
5940;DHT22;2995;-31.998;115.906;2023-04-01T08:42:37;25.30;99.90
5940;DHT22;2995;-31.998;115.906;2023-04-01T08:45:26;25.20;99.90
5940;DHT22;2995;-31.998;115.906;2023-04-01T08:54:59;25.40;99.90
5940;DHT22;2995;-31.998;115.906;2023-04-01T08:57:44;25.20;99.90
5940;DHT22;2995;-31.998;115.906;2023-04-01T09:00:25;25.00;99.90
5940;DHT22;2995;-31.998;115.906;2023-04-01T09:06:32;24.90;99.90
5940;DHT22;2995;-31.998;115.906;2023-04-01T09:09:22;25.00;99.90
5940;DHT22;2995;-31.998;115.906;2023-04-01T09:12:18;24.90;99.90
5940;DHT22;2995;-31.998;115.906;2023-04-01T09:27:04;24.50;99.90
5940;DHT22;2995;-31.998;115.906;2023-04-01T09:35:45;24.20;99.90
5940;DHT22;2995;-31.998;115.906;2023-04-01T09:38:23;24.10;99.90
5940;DHT22;2995;-31.998;115.906;2023-04-01T09:41:01;24.00;99.90
5940;DHT22;2995;-31.998;115.906;2023-04-01T09:43:50;24.00;99.90
5940;DHT22;2995;-31.998;115.906;2023-04-01T09:46:37;24.00;99.90
5940;DHT22;2995;-31.998;115.906;2023-04-01T09:52:30;24.00;99.90
5940;DHT22;2995;-31.998;115.906;2023-04-01T09:55:21;23.90;99.90
5940;DHT22;2995;-31.998;115.906;2023-04-01T10:01:22;23.70;99.90
5940;DHT22;2995;-31.998;115.906;2023-04-01T10:04:31;23.70;99.90
5940;DHT22;2995;-31.998;115.906;2023-04-01T10:07:33;23.60;99.90
5940;DHT22;2995;-31.998;115.906;2023-04-01T10:20:06;23.20;99.90
5940;DHT22;2995;-31.998;115.906;2023-04-01T10:22:57;23.20;99.90
5940;DHT22;2995;-31.998;115.906;2023-04-01T10:28:40;23.10;99.90
5940;DHT22;2995;-31.998;115.906;2023-04-01T10:31:40;23.00;99.90
5940;DHT22;2995;-31.998;115.906;2023-04-01T10:37:46;23.00;99.90
5940;DHT22;2995;-31.998;115.906;2023-04-01T10:40:38;23.10;99.90
5940;DHT22;2995;-31.998;115.906;2023-04-01T10:43:42;22.90;99.90
5940;DHT22;2995;-31.998;115.906;2023-04-01T10:49:47;22.70;99.90
5940;DHT22;2995;-31.998;115.906;2023-04-01T10:55:44;22.60;99.90
5940;DHT22;2995;-31.998;115.906;2023-04-01T11:05:07;22.50;99.90
5940;DHT22;2995;-31.998;115.906;2023-04-01T11:08:13;22.50;99.90
5940;DHT22;2995;-31.998;115.906;2023-04-01T11:14:13;22.20;99.90
5940;DHT22;2995;-31.998;115.906;2023-04-01T11:17:06;22.30;99.90
5940;DHT22;2995;-31.998;115.906;2023-04-01T11:20:02;22.20;99.90
5940;DHT22;2995;-31.998;115.906;2023-04-01T11:22:57;22.10;99.90
5940;DHT22;2995;-31.998;115.906;2023-04-01T11:25:57;22.10;99.90
5940;DHT22;2995;-31.998;115.906;2023-04-01T11:28:49;22.10;99.90
5940;DHT22;2995;-31.998;115.906;2023-04-01T11:31:34;22.00;99.90
5940;DHT22;2995;-31.998;115.906;2023-04-01T11:34:19;22.00;99.90
5940;DHT22;2995;-31.998;115.906;2023-04-01T11:37:01;22.10;99.90
5940;DHT22;2995;-31.998;115.906;2023-04-01T11:39:40;21.90;99.90
5940;DHT22;2995;-31.998;115.906;2023-04-01T11:42:20;21.80;99.90
5940;DHT22;2995;-31.998;115.906;2023-04-01T11:45:08;22.00;99.90
5940;DHT22;2995;-31.998;115.906;2023-04-01T11:48:17;21.90;99.90
5940;DHT22;2995;-31.998;115.906;2023-04-01T11:51:02;21.70;99.90
5940;DHT22;2995;-31.998;115.906;2023-04-01T11:53:44;21.70;99.90
5940;DHT22;2995;-31.998;115.906;2023-04-01T11:56:31;21.80;99.90
5940;DHT22;2995;-31.998;115.906;2023-04-01T11:59:23;21.80;99.90
5940;DHT22;2995;-31.998;115.906;2023-04-01T12:02:11;21.70;99.90
5940;DHT22;2995;-31.998;115.906;2023-04-01T12:05:03;21.50;99.90
5940;DHT22;2995;-31.998;115.906;2023-04-01T12:10:39;21.50;99.90
5940;DHT22;2995;-31.998;115.906;2023-04-01T12:13:27;21.30;99.90
5940;DHT22;2995;-31.998;115.906;2023-04-01T12:19:04;21.40;99.90
5940;DHT22;2995;-31.998;115.906;2023-04-01T12:21:41;21.30;99.90
5940;DHT22;2995;-31.998;115.906;2023-04-01T12:24:32;21.30;99.90
5940;DHT22;2995;-31.998;115.906;2023-04-01T12:27:15;21.30;99.90
5940;DHT22;2995;-31.998;115.906;2023-04-01T12:32:53;21.30;99.90
5940;DHT22;2995;-31.998;115.906;2023-04-01T12:35:30;21.30;99.90
5940;DHT22;2995;-31.998;115.906;2023-04-01T12:38:19;21.40;99.90
5940;DHT22;2995;-31.998;115.906;2023-04-01T12:41:10;21.40;99.90
5940;DHT22;2995;-31.998;115.906;2023-04-01T12:44:02;21.20;99.90
5940;DHT22;2995;-31.998;115.906;2023-04-01T12:46:49;21.10;99.90
5940;DHT22;2995;-31.998;115.906;2023-04-01T12:49:48;21.20;99.90
5940;DHT22;2995;-31.998;115.906;2023-04-01T12:52:38;21.10;99.90
5940;DHT22;2995;-31.998;115.906;2023-04-01T12:55:35;21.00;99.90
5940;DHT22;2995;-31.998;115.906;2023-04-01T13:04:57;21.00;99.90
5940;DHT22;2995;-31.998;115.906;2023-04-01T13:07:52;21.00;99.90
5940;DHT22;2995;-31.998;115.906;2023-04-01T13:13:43;20.90;99.90
5940;DHT22;2995;-31.998;115.906;2023-04-01T13:16:21;20.80;99.90
5940;DHT22;2995;-31.998;115.906;2023-04-01T13:18:58;20.80;99.90
5940;DHT22;2995;-31.998;115.906;2023-04-01T13:21:43;20.70;99.90
5940;DHT22;2995;-31.998;115.906;2023-04-01T13:24:29;20.60;99.90
5940;DHT22;2995;-31.998;115.906;2023-04-01T13:27:09;20.60;99.90
5940;DHT22;2995;-31.998;115.906;2023-04-01T13:29:43;20.60;99.90
5940;DHT22;2995;-31.998;115.906;2023-04-01T13:32:27;20.60;99.90
5940;DHT22;2995;-31.998;115.906;2023-04-01T13:35:16;20.60;99.90
5940;DHT22;2995;-31.998;115.906;2023-04-01T13:38:18;20.50;99.90
5940;DHT22;2995;-31.998;115.906;2023-04-01T13:40:55;20.40;99.90
5940;DHT22;2995;-31.998;115.906;2023-04-01T13:43:37;20.40;99.90
5940;DHT22;2995;-31.998;115.906;2023-04-01T13:46:22;20.40;99.90
5940;DHT22;2995;-31.998;115.906;2023-04-01T13:52:17;20.20;99.90
5940;DHT22;2995;-31.998;115.906;2023-04-01T13:55:18;20.30;99.90
5940;DHT22;2995;-31.998;115.906;2023-04-01T13:58:01;20.40;99.90
5940;DHT22;2995;-31.998;115.906;2023-04-01T14:00:46;20.40;99.90
5940;DHT22;2995;-31.998;115.906;2023-04-01T14:03:32;20.40;99.90
5940;DHT22;2995;-31.998;115.906;2023-04-01T14:06:28;20.30;99.90
5940;DHT22;2995;-31.998;115.906;2023-04-01T14:09:20;20.30;99.90
5940;DHT22;2995;-31.998;115.906;2023-04-01T14:12:04;20.40;99.90
5940;DHT22;2995;-31.998;115.906;2023-04-01T14:14:46;20.10;99.90
5940;DHT22;2995;-31.998;115.906;2023-04-01T14:17:36;20.10;99.90
5940;DHT22;2995;-31.998;115.906;2023-04-01T14:20:32;20.10;99.90
5940;DHT22;2995;-31.998;115.906;2023-04-01T14:29:16;20.00;99.90
5940;DHT22;2995;-31.998;115.906;2023-04-01T14:32:09;20.00;99.90
5940;DHT22;2995;-31.998;115.906;2023-04-01T14:34:55;20.10;99.90
5940;DHT22;2995;-31.998;115.906;2023-04-01T14:37:53;19.90;99.90
5940;DHT22;2995;-31.998;115.906;2023-04-01T14:40:34;19.90;99.90
5940;DHT22;2995;-31.998;115.906;2023-04-01T14:43:48;19.90;99.90
5940;DHT22;2995;-31.998;115.906;2023-04-01T14:49:29;19.80;99.90
5940;DHT22;2995;-31.998;115.906;2023-04-01T14:52:13;19.90;99.90
5940;DHT22;2995;-31.998;115.906;2023-04-01T14:54:47;19.80;99.90
5940;DHT22;2995;-31.998;115.906;2023-04-01T14:57:24;19.90;99.90
5940;DHT22;2995;-31.998;115.906;2023-04-01T15:00:05;19.80;99.90
5940;DHT22;2995;-31.998;115.906;2023-04-01T15:02:57;19.80;99.90
5940;DHT22;2995;-31.998;115.906;2023-04-01T15:05:42;19.80;99.90
5940;DHT22;2995;-31.998;115.906;2023-04-01T15:08:21;19.80;99.90
5940;DHT22;2995;-31.998;115.906;2023-04-01T15:11:22;19.90;99.90
5940;DHT22;2995;-31.998;115.906;2023-04-01T15:14:23;19.80;99.90
5940;DHT22;2995;-31.998;115.906;2023-04-01T15:17:06;19.90;99.90
5940;DHT22;2995;-31.998;115.906;2023-04-01T15:20:01;19.90;99.90
5940;DHT22;2995;-31.998;115.906;2023-04-01T15:22:54;19.70;99.90
5940;DHT22;2995;-31.998;115.906;2023-04-01T15:25:44;19.60;99.90
5940;DHT22;2995;-31.998;115.906;2023-04-01T15:28:23;19.60;99.90
5940;DHT22;2995;-31.998;115.906;2023-04-01T15:31:02;19.60;99.90
5940;DHT22;2995;-31.998;115.906;2023-04-01T15:36:39;19.60;99.90
5940;DHT22;2995;-31.998;115.906;2023-04-01T15:39:14;19.40;99.90
5940;DHT22;2995;-31.998;115.906;2023-04-01T15:42:16;19.40;99.90
5940;DHT22;2995;-31.998;115.906;2023-04-01T15:45:02;19.50;99.90
5940;DHT22;2995;-31.998;115.906;2023-04-01T15:47:42;19.50;99.90
5940;DHT22;2995;-31.998;115.906;2023-04-01T15:50:43;19.40;99.90
5940;DHT22;2995;-31.998;115.906;2023-04-01T15:53:30;19.50;99.90
5940;DHT22;2995;-31.998;115.906;2023-04-01T15:56:21;19.40;99.90
5940;DHT22;2995;-31.998;115.906;2023-04-01T15:59:02;19.20;99.90
5940;DHT22;2995;-31.998;115.906;2023-04-01T16:01:41;19.30;99.90
5940;DHT22;2995;-31.998;115.906;2023-04-01T16:10:45;19.20;99.90
5940;DHT22;2995;-31.998;115.906;2023-04-01T16:13:32;19.20;99.90
5940;DHT22;2995;-31.998;115.906;2023-04-01T16:16:14;19.20;99.90
5940;DHT22;2995;-31.998;115.906;2023-04-01T16:19:06;19.30;99.90
5940;DHT22;2995;-31.998;115.906;2023-04-01T16:21:48;19.10;99.90
5940;DHT22;2995;-31.998;115.906;2023-04-01T16:24:30;19.20;99.90
5940;DHT22;2995;-31.998;115.906;2023-04-01T16:27:08;19.20;99.90
5940;DHT22;2995;-31.998;115.906;2023-04-01T16:29:46;19.20;99.90
5940;DHT22;2995;-31.998;115.906;2023-04-01T16:32:41;19.20;99.90
5940;DHT22;2995;-31.998;115.906;2023-04-01T16:35:34;19.10;99.90
5940;DHT22;2995;-31.998;115.906;2023-04-01T16:38:16;19.10;99.90
5940;DHT22;2995;-31.998;115.906;2023-04-01T16:40:58;19.10;99.90
5940;DHT22;2995;-31.998;115.906;2023-04-01T16:43:38;19.10;99.90
5940;DHT22;2995;-31.998;115.906;2023-04-01T16:46:34;18.90;99.90
5940;DHT22;2995;-31.998;115.906;2023-04-01T16:49:28;18.80;99.90
5940;DHT22;2995;-31.998;115.906;2023-04-01T16:52:16;18.90;99.90
5940;DHT22;2995;-31.998;115.906;2023-04-01T16:54:53;18.80;99.90
5940;DHT22;2995;-31.998;115.906;2023-04-01T16:57:31;18.70;99.90
5940;DHT22;2995;-31.998;115.906;2023-04-01T17:00:16;18.70;99.90
5940;DHT22;2995;-31.998;115.906;2023-04-01T17:02:52;18.80;99.90
5940;DHT22;2995;-31.998;115.906;2023-04-01T17:05:42;18.90;99.90
5940;DHT22;2995;-31.998;115.906;2023-04-01T17:08:22;18.80;99.90
5940;DHT22;2995;-31.998;115.906;2023-04-01T17:10:59;18.80;99.90
5940;DHT22;2995;-31.998;115.906;2023-04-01T17:13:45;18.70;99.90
5940;DHT22;2995;-31.998;115.906;2023-04-01T17:16:50;18.80;99.90
5940;DHT22;2995;-31.998;115.906;2023-04-01T17:19:41;18.70;99.90
5940;DHT22;2995;-31.998;115.906;2023-04-01T17:22:26;18.60;99.90
5940;DHT22;2995;-31.998;115.906;2023-04-01T17:25:11;18.60;99.90
5940;DHT22;2995;-31.998;115.906;2023-04-01T17:30:23;18.60;99.90
5940;DHT22;2995;-31.998;115.906;2023-04-01T17:33:13;18.60;99.90
5940;DHT22;2995;-31.998;115.906;2023-04-01T17:35:56;18.60;99.90
5940;DHT22;2995;-31.998;115.906;2023-04-01T17:38:53;18.60;99.90
5940;DHT22;2995;-31.998;115.906;2023-04-01T17:41:32;18.60;99.90
5940;DHT22;2995;-31.998;115.906;2023-04-01T17:44:18;18.50;99.90
5940;DHT22;2995;-31.998;115.906;2023-04-01T17:47:10;18.50;99.90
5940;DHT22;2995;-31.998;115.906;2023-04-01T17:49:49;18.50;99.90
5940;DHT22;2995;-31.998;115.906;2023-04-01T17:52:29;18.40;99.90
5940;DHT22;2995;-31.998;115.906;2023-04-01T17:58:02;18.40;99.90
5940;DHT22;2995;-31.998;115.906;2023-04-01T18:00:46;18.40;99.90
5940;DHT22;2995;-31.998;115.906;2023-04-01T18:03:30;18.40;99.90
5940;DHT22;2995;-31.998;115.906;2023-04-01T18:06:09;18.40;99.90
5940;DHT22;2995;-31.998;115.906;2023-04-01T18:08:54;18.40;99.90
5940;DHT22;2995;-31.998;115.906;2023-04-01T18:11:38;18.50;99.90
5940;DHT22;2995;-31.998;115.906;2023-04-01T18:14:28;18.50;99.90
5940;DHT22;2995;-31.998;115.906;2023-04-01T18:17:15;18.40;99.90
5940;DHT22;2995;-31.998;115.906;2023-04-01T18:22:45;18.50;99.90
5940;DHT22;2995;-31.998;115.906;2023-04-01T18:25:22;18.40;99.90
5940;DHT22;2995;-31.998;115.906;2023-04-01T18:28:14;18.40;99.90
5940;DHT22;2995;-31.998;115.906;2023-04-01T18:30:52;18.30;99.90
5940;DHT22;2995;-31.998;115.906;2023-04-01T18:33:29;18.30;99.90
5940;DHT22;2995;-31.998;115.906;2023-04-01T18:36:14;18.30;99.90
5940;DHT22;2995;-31.998;115.906;2023-04-01T18:38:49;18.20;99.90
5940;DHT22;2995;-31.998;115.906;2023-04-01T18:41:30;18.30;99.90
5940;DHT22;2995;-31.998;115.906;2023-04-01T18:44:18;18.30;99.90
5940;DHT22;2995;-31.998;115.906;2023-04-01T18:47:00;18.20;99.90